This is the latest recevied weather packets stored in our database for station/object DB0FN-10. If no packets are shown the sender has not sent any weather packets the latest 10 day(s).
| Time | Temp. | Humidity | Pressure | Rain* | Wind** | Luminosity | Snow |
|---|---|---|---|---|---|---|---|
| 1788154363 | 23.89° C | 67% | 1022.1 hPa | - | - | - | - |
| 1788153463 | 23.33° C | 67% | 1022.2 hPa | - | - | - | - |
| 1788152562 | 23.89° C | 66% | 1022.1 hPa | - | - | - | - |
| 1788151662 | 23.33° C | 68% | 1021.9 hPa | - | - | - | - |
| 1788150762 | 23.89° C | 66% | 1022.1 hPa | - | - | - | - |
| 1788149862 | 23.89° C | 66% | 1022 hPa | - | - | - | - |
| 1788148962 | 23.89° C | 67% | 1022.1 hPa | - | - | - | - |
| 1788148062 | 23.89° C | 67% | 1022 hPa | - | - | - | - |
| 1788147162 | 23.89° C | 67% | 1022.2 hPa | - | - | - | - |
| 1788146262 | 23.89° C | 66% | 1022 hPa | - | - | - | - |
| 1788145362 | 23.89° C | 66% | 1021.9 hPa | - | - | - | - |
| 1788144462 | 24.44° C | 65% | 1022 hPa | - | - | - | - |
| 1788143562 | 23.89° C | 65% | 1022 hPa | - | - | - | - |
| 1788142662 | 24.44° C | 65% | 1021.8 hPa | - | - | - | - |
| 1788141762 | 23.89° C | 65% | 1021.7 hPa | - | - | - | - |
| 1788140862 | 23.89° C | 63% | 1021.7 hPa | - | - | - | - |
| 1788139961 | 24.44° C | 63% | 1021.5 hPa | - | - | - | - |
| 1788139061 | 24.44° C | 63% | 1021.6 hPa | - | - | - | - |
| 1788138161 | 25° C | 57% | 1022.3 hPa | - | - | - | - |
| 1788137261 | 25.56° C | 54% | 1020.7 hPa | - | - | - | - |
| 1788136361 | 26.67° C | 48% | 1020 hPa | - | - | - | - |
| 1788135461 | 26.11° C | 48% | 1019.6 hPa | - | - | - | - |
| 1788134561 | 26.11° C | 47% | 1019.6 hPa | - | - | - | - |
| 1788133661 | 25.56° C | 50% | 1019.5 hPa | - | - | - | - |
| 1788132761 | 25° C | 53% | 1019.5 hPa | - | - | - | - |
* Rain since midnight (hover to see other rain measurements)
** Current wind speed in m/s (hover to see current wind gust speed)